Time;durP1;ratioP1;P1;durP2;ratioP2;P2;SDS_P1;SDS_P2;PMS_P1;PMS_P2;Temp;Humidity;BMP_temperature;BMP_pressure;BME280_temperature;BME280_humidity;BME280_pressure;Samples;Min_cycle;Max_cycle;Signal;HPM_P1;HPM_P2
2022/09/30 00:00:22;;;;;;;0.30;0.30;;;;;;;11.95;73.79;100825.19;2056957;28;20047;-69
2022/09/30 00:01:28;;;;;;;0.30;0.30;;;;;;;11.89;73.82;100826.59;2063898;28;20858;-69
2022/09/30 00:02:30;;;;;;;0.30;0.30;;;;;;;11.81;74.07;100824.84;2062200;28;20065;-69
2022/09/30 00:03:35;;;;;;;0.30;0.30;;;;;;;11.78;74.33;100825.53;2060552;28;20066;-69
2022/09/30 00:04:38;;;;;;;0.30;0.30;;;;;;;11.75;74.53;100826.22;2058055;28;20061;-69
2022/09/30 00:05:43;;;;;;;0.38;0.38;;;;;;;11.71;74.72;100820.72;2063720;28;20074;-69
2022/09/30 00:06:46;;;;;;;0.30;0.30;;;;;;;11.69;74.72;100828.41;2064929;28;20129;-69
2022/09/30 00:07:49;;;;;;;0.30;0.30;;;;;;;11.70;74.68;100812.97;2063134;28;20120;-69
2022/09/30 00:08:52;;;;;;;0.30;0.30;;;;;;;11.69;74.82;100816.78;2063402;28;20054;-69
2022/09/30 00:09:55;;;;;;;0.30;0.30;;;;;;;11.69;74.94;100814.09;2062634;28;22085;-69
2022/09/30 00:10:59;;;;;;;0.30;0.30;;;;;;;11.70;74.79;100811.03;2063119;28;20054;-69
2022/09/30 00:12:03;;;;;;;0.20;0.20;;;;;;;11.68;74.68;100816.03;2050710;28;20084;-69
2022/09/30 00:13:05;;;;;;;0.30;0.30;;;;;;;11.68;74.70;100820.63;2053383;28;20105;-69
2022/09/30 00:14:14;;;;;;;0.30;0.30;;;;;;;11.69;74.86;100814.09;2055177;28;20526;-68
2022/09/30 00:15:17;;;;;;;0.30;0.30;;;;;;;11.65;74.66;100815.91;2055185;28;20513;-68
2022/09/30 00:16:21;;;;;;;0.30;0.30;;;;;;;11.65;74.85;100813.97;2048400;28;20055;-68
2022/09/30 00:17:23;;;;;;;0.30;0.30;;;;;;;11.65;74.33;100813.97;2055033;28;20106;-68
2022/09/30 00:18:27;;;;;;;0.30;0.30;;;;;;;11.64;74.56;100817.03;2059100;28;20050;-69
2022/09/30 00:19:30;;;;;;;0.20;0.20;;;;;;;11.63;74.85;100815.47;2059554;28;20466;-68
2022/09/30 00:20:35;;;;;;;0.20;0.20;;;;;;;11.63;74.80;100816.28;2059947;28;20062;-69
2022/09/30 00:21:39;;;;;;;0.20;0.20;;;;;;;11.62;75.26;100816.59;2061652;28;20129;-68
2022/09/30 00:22:43;;;;;;;0.25;0.25;;;;;;;11.60;75.18;100816.16;2056029;28;20051;-69
2022/09/30 00:23:46;;;;;;;0.20;0.20;;;;;;;11.58;74.94;100818.41;2053158;28;20070;-68
2022/09/30 00:24:50;;;;;;;0.30;0.30;;;;;;;11.60;75.29;100824.25;2061696;28;20171;-68
2022/09/30 00:25:57;;;;;;;0.20;0.20;;;;;;;11.59;74.95;100818.06;2063439;28;20129;-68
2022/09/30 00:27:01;;;;;;;0.20;0.20;;;;;;;11.58;75.01;100826.50;2057915;28;20561;-68
2022/09/30 00:28:06;;;;;;;0.20;0.20;;;;;;;11.55;74.40;100821.81;2047744;28;20059;-68
2022/09/30 00:29:11;;;;;;;0.20;0.20;;;;;;;11.53;74.83;100824.06;2055908;28;20051;-68
2022/09/30 00:30:13;;;;;;;0.30;0.30;;;;;;;11.52;74.43;100822.50;2058953;28;20051;-68
2022/09/30 00:31:19;;;;;;;0.22;0.22;;;;;;;11.53;74.39;100829.47;2061577;28;20505;-68
2022/09/30 00:32:22;;;;;;;0.30;0.30;;;;;;;11.51;74.61;100826.34;2067560;28;20046;-69
2022/09/30 00:33:25;;;;;;;0.30;0.30;;;;;;;11.50;74.51;100825.56;2059828;28;20517;-69
2022/09/30 00:34:28;;;;;;;0.30;0.30;;;;;;;11.50;74.66;100830.97;2056496;28;20055;-69
2022/09/30 00:35:30;;;;;;;0.30;0.30;;;;;;;11.51;74.75;100820.94;2058327;28;20050;-69
2022/09/30 00:36:34;;;;;;;0.30;0.30;;;;;;;11.51;75.08;100820.94;2059883;28;20063;-69
2022/09/30 00:37:39;;;;;;;0.30;0.30;;;;;;;11.51;74.91;100826.34;2062974;28;20129;-68
2022/09/30 00:38:41;;;;;;;0.35;0.35;;;;;;;11.49;74.89;100823.19;2063541;28;20073;-68
2022/09/30 00:39:44;;;;;;;0.30;0.30;;;;;;;11.50;74.75;100819.34;2063177;28;20073;-69
2022/09/30 00:40:46;;;;;;;0.30;0.30;;;;;;;11.50;74.98;100819.34;2058659;28;20521;-69
2022/09/30 00:41:52;;;;;;;0.30;0.30;;;;;;;11.51;74.93;100824.41;2062144;28;20561;-68
2022/09/30 00:42:54;;;;;;;0.40;0.40;;;;;;;11.47;74.90;100825.44;2057097;28;20123;-68
2022/09/30 00:43:57;;;;;;;0.32;0.32;;;;;;;11.47;74.92;100830.84;2056451;28;20126;-68
2022/09/30 00:45:04;;;;;;;0.30;0.30;;;;;;;11.43;74.81;100830.00;2063147;28;20058;-68
2022/09/30 00:46:15;;;;;;;0.30;0.30;;;;;;;11.42;75.26;100828.41;2062645;28;20054;-69
2022/09/30 00:47:37;;;;;;;0.30;0.30;;;;;;;11.33;75.27;100833.19;2059362;28;20077;-69
2022/09/30 00:48:40;;;;;;;0.40;0.40;;;;;;;11.31;75.37;100828.13;2056768;28;20062;-69
2022/09/30 00:49:42;;;;;;;0.30;0.30;;;;;;;11.29;75.18;100830.38;2057967;28;20097;-69
2022/09/30 00:50:49;;;;;;;0.30;0.30;;;;;;;11.25;75.66;100824.09;2057234;28;20059;-69
2022/09/30 00:51:55;;;;;;;0.30;0.30;;;;;;;11.24;76.26;100827.16;2064492;28;20058;-69
2022/09/30 00:53:05;;;;;;;0.40;0.40;;;;;;;11.20;75.88;100832.47;2063172;28;20520;-69
2022/09/30 00:54:10;;;;;;;0.30;0.30;;;;;;;11.18;76.13;100828.53;2059150;28;20483;-69
2022/09/30 00:55:33;;;;;;;0.30;0.30;;;;;;;11.19;76.08;100830.09;2059448;28;20054;-67
2022/09/30 00:56:39;;;;;;;0.22;0.22;;;;;;;11.18;76.38;100833.94;2061494;28;20406;-68
2022/09/30 00:57:42;;;;;;;0.30;0.30;;;;;;;11.20;75.95;100837.06;2058975;28;20471;-68
2022/09/30 00:58:48;;;;;;;0.40;0.40;;;;;;;11.22;76.11;100824.00;2056195;28;20746;-67
2022/09/30 00:59:52;;;;;;;0.30;0.30;;;;;;;11.24;75.85;100835.25;2047760;28;20081;-68
2022/09/30 01:00:54;;;;;;;0.30;0.30;;;;;;;11.23;75.74;100831.75;2054117;28;20581;-68
2022/09/30 01:01:57;;;;;;;0.30;0.30;;;;;;;11.24;75.78;100835.25;2056816;28;20426;-67
2022/09/30 01:03:00;;;;;;;0.30;0.30;;;;;;;11.25;75.12;100836.81;2057003;28;20172;-68
2022/09/30 01:04:06;;;;;;;0.30;0.30;;;;;;;11.26;75.11;100843.78;2058190;28;20581;-67
2022/09/30 01:05:08;;;;;;;0.30;0.30;;;;;;;11.22;75.53;100841.00;2047743;28;20055;-68
2022/09/30 01:06:12;;;;;;;0.30;0.30;;;;;;;11.22;75.91;100851.03;2055487;28;20051;-68
2022/09/30 01:07:14;;;;;;;0.30;0.30;;;;;;;11.22;75.99;100845.63;2060666;28;20051;-67
2022/09/30 01:08:20;;;;;;;0.30;0.30;;;;;;;11.18;76.06;100844.75;2060625;28;20506;-67
2022/09/30 01:09:22;;;;;;;0.30;0.30;;;;;;;11.15;76.09;100848.13;2060747;28;20113;-67
2022/09/30 01:10:25;;;;;;;0.30;0.30;;;;;;;11.12;76.04;100849.59;2057934;28;20062;-68
2022/09/30 01:11:28;;;;;;;0.30;0.30;;;;;;;11.08;76.07;100843.31;2063986;28;20468;-68
2022/09/30 01:12:32;;;;;;;0.20;0.20;;;;;;;11.05;76.49;100851.31;2061399;28;20054;-68
2022/09/30 01:13:36;;;;;;;0.30;0.30;;;;;;;10.97;76.39;100846.84;2060034;28;20054;-68
2022/09/30 01:14:40;;;;;;;0.30;0.30;;;;;;;10.87;76.26;100850.81;2056713;28;20102;-68
2022/09/30 01:16:17;;;;;;;0.40;0.40;;;;;;;10.73;76.43;100852.31;2059939;28;20109;-68
2022/09/30 01:17:34;;;;;;;0.30;0.30;;;;;;;10.61;77.75;100845.00;2057431;28;20085;-68
2022/09/30 01:18:52;;;;;;;0.30;0.30;;;;;;;10.57;78.45;100846.81;2057621;28;20047;-68
2022/09/30 01:20:14;;;;;;;0.30;0.30;;;;;;;10.53;78.26;100841.31;2061838;28;20129;-68
2022/09/30 01:21:44;;;;;;;0.40;0.40;;;;;;;10.52;78.13;100847.03;2056454;28;20065;-68
2022/09/30 01:22:56;;;;;;;0.30;0.30;;;;;;;10.57;78.56;100847.63;2062897;28;20046;-67
2022/09/30 01:24:16;;;;;;;0.30;0.30;;;;;;;10.57;78.88;100847.63;2051450;28;20677;-68
2022/09/30 01:25:51;;;;;;;0.40;0.40;;;;;;;10.58;78.46;100846.47;2050809;28;20083;-68
2022/09/30 01:27:15;;;;;;;0.30;0.30;;;;;;;10.66;77.84;100846.66;2054886;28;20094;-69
2022/09/30 01:28:45;;;;;;;0.30;0.30;;;;;;;10.72;78.31;100848.03;2058784;28;20058;-69
2022/09/30 01:30:09;;;;;;;0.40;0.40;;;;;;;10.76;77.94;100848.91;2056521;28;20062;-69
2022/09/30 01:31:28;;;;;;;0.30;0.30;;;;;;;10.81;78.20;100851.38;2055283;28;20165;-69
2022/09/30 01:32:54;;;;;;;0.20;0.20;;;;;;;10.84;77.81;100845.28;2047610;28;20544;-69
2022/09/30 01:34:06;;;;;;;0.30;0.30;;;;;;;10.87;77.79;100839.22;2058833;28;20111;-69
2022/09/30 01:35:21;;;;;;;0.40;0.40;;;;;;;10.89;77.00;100843.16;2061389;28;20050;-66
2022/09/30 01:36:42;;;;;;;0.30;0.30;;;;;;;10.90;76.96;100846.63;2063826;28;20116;-66
2022/09/30 01:37:53;;;;;;;0.30;0.30;;;;;;;10.93;77.03;100844.03;2059040;28;20082;-68
2022/09/30 01:39:08;;;;;;;0.38;0.38;;;;;;;10.94;76.68;100839.44;2059451;28;20070;-68
2022/09/30 01:40:21;;;;;;;0.30;0.30;;;;;;;10.97;76.66;100838.75;2059305;28;20050;-68
2022/09/30 01:41:27;;;;;;;0.30;0.30;;;;;;;10.97;76.41;100842.25;2059211;28;20054;-68
2022/09/30 01:42:37;;;;;;;0.30;0.30;;;;;;;10.99;76.64;100841.88;2059367;28;20061;-68
2022/09/30 01:43:48;;;;;;;0.20;0.20;;;;;;;10.99;76.87;100834.56;2059445;28;20062;-68
2022/09/30 01:45:01;;;;;;;0.30;0.30;;;;;;;11.01;77.24;100839.63;2059127;28;20112;-68
2022/09/30 01:46:14;;;;;;;0.30;0.30;;;;;;;11.02;76.90;100844.66;2059893;28;20054;-68
2022/09/30 01:47:23;;;;;;;0.30;0.30;;;;;;;11.03;76.84;100837.38;2051981;28;20047;-68
2022/09/30 01:48:35;;;;;;;0.32;0.32;;;;;;;11.04;77.32;100838.91;2053659;28;20093;-68
2022/09/30 01:49:42;;;;;;;0.30;0.30;;;;;;;11.05;76.98;100835.88;2059697;28;20562;-68
2022/09/30 01:50:52;;;;;;;0.40;0.40;;;;;;;11.07;76.81;100838.25;2059064;28;20473;-68
2022/09/30 01:52:01;;;;;;;0.30;0.30;;;;;;;11.08;77.01;100845.22;2059886;28;20051;-68
2022/09/30 01:53:10;;;;;;;0.30;0.30;;;;;;;11.10;77.02;100843.75;2059427;28;20535;-67
2022/09/30 01:54:20;;;;;;;0.30;0.30;;;;;;;11.12;77.08;100846.09;2059358;28;20450;-68
2022/09/30 01:55:29;;;;;;;0.30;0.30;;;;;;;11.12;76.95;100840.69;2059987;28;20054;-70
2022/09/30 01:56:37;;;;;;;0.30;0.30;;;;;;;11.13;77.92;100843.06;2058499;28;20062;-67
2022/09/30 01:57:47;;;;;;;0.30;0.30;;;;;;;11.13;77.55;100842.28;2059416;28;20113;-68
2022/09/30 01:58:52;;;;;;;;;;;;;;;11.02;78.33;100841.19;2051134;28;20050;-67
2022/09/30 02:00:02;;;;;;;0.28;0.28;;;;;;;11.08;77.71;100839.81;2042217;28;20363;-67
2022/09/30 02:01:30;;;;;;;0.30;0.30;;;;;;;11.11;77.67;100833.72;2051984;28;20178;-68
2022/09/30 02:02:40;;;;;;;0.20;0.20;;;;;;;11.13;77.83;100834.19;2057443;28;20054;-67
2022/09/30 02:03:48;;;;;;;0.30;0.30;;;;;;;11.14;77.61;100835.75;2059504;28;20128;-68
2022/09/30 02:04:56;;;;;;;0.30;0.30;;;;;;;11.10;77.69;100832.94;2059420;28;20457;-68
2022/09/30 02:06:04;;;;;;;0.30;0.30;;;;;;;11.09;77.82;100819.78;2050987;28;20046;-68
2022/09/30 02:07:13;;;;;;;0.30;0.30;;;;;;;11.08;78.10;100823.63;2051763;28;20046;-68
2022/09/30 02:08:20;;;;;;;0.30;0.30;;;;;;;11.10;77.30;100829.47;2059513;28;20054;-68
2022/09/30 02:09:28;;;;;;;0.28;0.28;;;;;;;11.12;77.32;100835.28;2059195;28;20058;-68
2022/09/30 02:10:35;;;;;;;0.30;0.30;;;;;;;11.11;77.59;100828.31;2059625;28;20054;-68
2022/09/30 02:11:38;;;;;;;0.30;0.30;;;;;;;11.11;77.77;100833.72;2059300;28;20061;-68
2022/09/30 02:12:47;;;;;;;0.20;0.20;;;;;;;11.12;77.88;100830.69;2058670;28;20101;-69
2022/09/30 02:13:54;;;;;;;0.30;0.30;;;;;;;11.13;77.21;100832.25;2059053;28;20054;-69
2022/09/30 02:15:02;;;;;;;0.20;0.20;;;;;;;11.13;77.30;100843.06;2051377;28;20450;-68
2022/09/30 02:16:12;;;;;;;0.30;0.30;;;;;;;11.15;77.18;100831.91;2051951;28;20055;-69
2022/09/30 02:17:20;;;;;;;0.30;0.30;;;;;;;11.15;77.28;100830.00;2059364;28;20061;-69
2022/09/30 02:18:31;;;;;;;0.30;0.30;;;;;;;11.17;77.12;100832.34;2052201;28;20604;-68
2022/09/30 02:19:38;;;;;;;0.30;0.30;;;;;;;11.19;77.04;100836.28;2051265;28;20553;-68
2022/09/30 02:20:43;;;;;;;0.30;0.30;;;;;;;11.22;77.63;100837.50;2059191;28;20054;-69
2022/09/30 02:21:52;;;;;;;0.30;0.30;;;;;;;11.24;77.42;100833.31;2059650;28;20501;-68
2022/09/30 02:23:00;;;;;;;0.30;0.30;;;;;;;11.26;77.64;100832.97;2059780;28;20089;-68
2022/09/30 02:24:07;;;;;;;0.30;0.30;;;;;;;11.29;77.24;100832.31;2060133;28;20104;-69
2022/09/30 02:25:17;;;;;;;0.30;0.30;;;;;;;11.32;76.93;100837.03;2059327;28;20054;-69
2022/09/30 02:26:23;;;;;;;0.40;0.40;;;;;;;11.30;76.58;100836.59;2058383;28;20121;-68
2022/09/30 02:27:31;;;;;;;0.40;0.40;;;;;;;11.29;76.51;100835.03;2058886;28;20490;-69
2022/09/30 02:28:38;;;;;;;0.30;0.30;;;;;;;11.28;77.03;100846.94;2059469;28;20058;-68
2022/09/30 02:29:45;;;;;;;0.30;0.30;;;;;;;11.25;76.82;100839.53;2059357;28;20054;-68
2022/09/30 02:30:52;;;;;;;0.30;0.30;;;;;;;11.22;76.63;100842.91;2059228;28;20046;-68
2022/09/30 02:32:01;;;;;;;0.30;0.30;;;;;;;11.23;77.72;100839.06;2050519;28;20090;-68
2022/09/30 02:33:08;;;;;;;0.32;0.32;;;;;;;11.23;77.60;100839.06;2058477;28;20529;-68
2022/09/30 02:34:15;;;;;;;0.30;0.30;;;;;;;11.24;77.80;100835.25;2052972;28;20205;-68
2022/09/30 02:35:22;;;;;;;0.30;0.30;;;;;;;11.26;77.44;100835.69;2052900;28;20058;-68
2022/09/30 02:36:30;;;;;;;0.40;0.40;;;;;;;11.29;77.91;100835.78;2059056;28;20058;-68
2022/09/30 02:37:36;;;;;;;0.30;0.30;;;;;;;11.30;77.92;100837.38;2051807;28;20137;-69
2022/09/30 02:38:43;;;;;;;0.40;0.40;;;;;;;11.33;78.14;100835.88;2052918;28;20106;-68
2022/09/30 02:39:53;;;;;;;0.40;0.40;;;;;;;11.33;77.59;100839.38;2059687;28;20409;-68
2022/09/30 02:41:05;;;;;;;0.40;0.40;;;;;;;11.35;77.45;100839.03;2060326;28;20050;-68
2022/09/30 02:42:13;;;;;;;0.43;0.43;;;;;;;11.33;77.51;100841.28;2059850;28;20502;-68
2022/09/30 02:43:19;;;;;;;0.40;0.40;;;;;;;11.35;77.63;100833.63;2059803;28;20146;-68
2022/09/30 02:44:21;;;;;;;0.35;0.35;;;;;;;11.37;76.93;100834.09;2058892;28;20541;-68
2022/09/30 02:45:24;;;;;;;0.40;0.40;;;;;;;11.40;77.24;100836.09;2059037;28;20133;-68
2022/09/30 02:46:34;;;;;;;0.40;0.40;;;;;;;11.40;77.64;100833.38;2059425;28;20053;-67
2022/09/30 02:47:49;;;;;;;0.40;0.40;;;;;;;11.39;77.19;100835.28;2052289;28;20179;-68
2022/09/30 02:48:58;;;;;;;0.40;0.40;;;;;;;11.39;77.21;100839.91;2054417;28;20054;-68
2022/09/30 02:50:11;;;;;;;0.40;0.40;;;;;;;11.41;77.02;100840.34;2058424;28;20058;-68
2022/09/30 02:51:18;;;;;;;0.40;0.40;;;;;;;11.40;77.22;100836.84;2058497;28;20062;-69
2022/09/30 02:52:27;;;;;;;0.45;0.45;;;;;;;11.40;77.31;100830.69;2058501;28;20506;-69
2022/09/30 02:53:37;;;;;;;0.40;0.40;;;;;;;11.41;77.34;100835.75;2059871;28;20081;-68
2022/09/30 02:54:51;;;;;;;0.50;0.50;;;;;;;11.40;77.54;100836.84;2058939;28;20498;-68
2022/09/30 02:56:12;;;;;;;0.40;0.40;;;;;;;11.39;78.19;100838.00;2057889;28;20219;-68
2022/09/30 02:57:21;;;;;;;0.40;0.40;;;;;;;11.42;77.61;100836.50;2051150;28;20059;-69
2022/09/30 02:58:25;;;;;;;0.40;0.40;;;;;;;11.43;77.59;100846.22;2051074;28;20051;-68
2022/09/30 02:59:28;;;;;;;0.40;0.40;;;;;;;11.45;77.04;100844.72;2058889;28;20062;-68
2022/09/30 03:00:30;;;;;;;0.40;0.40;;;;;;;11.46;77.17;100851.72;2058359;28;20532;-68
2022/09/30 03:01:33;;;;;;;0.32;0.32;;;;;;;11.42;76.65;100852.72;2057708;28;20140;-68
2022/09/30 03:02:35;;;;;;;0.40;0.40;;;;;;;11.40;76.94;100853.06;2058720;28;20158;-69
2022/09/30 03:03:42;;;;;;;0.30;0.30;;;;;;;11.38;76.45;100854.56;2058969;28;20121;-68
2022/09/30 03:04:49;;;;;;;0.32;0.32;;;;;;;11.31;76.48;100854.34;2058991;28;20076;-68
2022/09/30 03:05:57;;;;;;;0.32;0.32;;;;;;;11.24;76.53;100854.19;2058038;28;21022;-69
2022/09/30 03:07:02;;;;;;;0.40;0.40;;;;;;;11.17;76.46;100849.34;2058444;28;20046;-68
2022/09/30 03:08:07;;;;;;;0.32;0.32;;;;;;;11.11;76.79;100852.66;2059053;28;20517;-68
2022/09/30 03:09:10;;;;;;;0.40;0.40;;;;;;;11.08;76.72;100856.03;2052546;28;20088;-68
2022/09/30 03:10:13;;;;;;;0.30;0.30;;;;;;;11.03;77.37;100853.56;2052788;28;20051;-68
2022/09/30 03:11:19;;;;;;;0.30;0.30;;;;;;;10.99;76.55;100856.16;2058520;28;20486;-68
2022/09/30 03:12:33;;;;;;;0.40;0.40;;;;;;;10.95;77.66;100857.19;2059170;28;20054;-68
2022/09/30 03:14:01;;;;;;;0.30;0.30;;;;;;;10.81;77.88;100854.09;2051484;28;20074;-68
2022/09/30 03:15:19;;;;;;;0.40;0.40;;;;;;;10.81;78.10;100857.59;2054204;28;20137;-68
2022/09/30 03:16:35;;;;;;;0.40;0.40;;;;;;;10.78;78.25;100852.06;2051486;28;20182;-68
2022/09/30 03:17:55;;;;;;;0.38;0.38;;;;;;;10.73;77.99;100852.31;2052296;28;20058;-68
2022/09/30 03:19:17;;;;;;;0.40;0.40;;;;;;;10.55;78.41;100852.56;2059418;28;20490;-68
2022/09/30 03:20:56;;;;;;;0.30;0.30;;;;;;;10.40;78.36;100849.75;2058877;28;20972;-68
2022/09/30 03:22:14;;;;;;;0.38;0.38;;;;;;;10.36;79.40;100841.56;2036569;29;20142;-68
2022/09/30 03:23:35;;;;;;;0.40;0.40;;;;;;;10.30;79.50;100845.59;2061566;28;20046;-69
2022/09/30 03:25:02;;;;;;;0.40;0.40;;;;;;;10.26;79.12;100847.41;2061315;28;20059;-68
2022/09/30 03:26:17;;;;;;;0.32;0.32;;;;;;;10.27;79.62;100850.88;2060134;28;20108;-68
2022/09/30 03:27:31;;;;;;;0.30;0.30;;;;;;;10.31;79.72;100849.06;2061475;28;20087;-68
2022/09/30 03:28:40;;;;;;;0.40;0.40;;;;;;;10.36;79.83;100849.66;2061274;28;20061;-69
2022/09/30 03:29:51;;;;;;;0.40;0.40;;;;;;;10.39;79.39;100854.38;2053766;28;20511;-68
2022/09/30 03:31:04;;;;;;;0.35;0.35;;;;;;;10.43;79.34;100855.25;2053854;28;20141;-68
2022/09/30 03:32:20;;;;;;;0.30;0.30;;;;;;;10.44;79.08;100854.16;2060695;28;20121;-68
2022/09/30 03:33:27;;;;;;;0.40;0.40;;;;;;;10.44;78.70;100859.53;2061165;28;20105;-68
2022/09/30 03:34:37;;;;;;;0.40;0.40;;;;;;;10.42;78.90;100858.28;2060528;28;20038;-68
2022/09/30 03:35:50;;;;;;;0.30;0.30;;;;;;;10.39;79.80;100848.97;2061233;28;20430;-68
2022/09/30 03:37:03;;;;;;;0.30;0.30;;;;;;;10.35;79.85;100850.75;2061167;28;20062;-68
2022/09/30 03:38:14;;;;;;;0.40;0.40;;;;;;;10.33;79.91;100850.31;2059384;28;20046;-68
2022/09/30 03:39:25;;;;;;;0.40;0.40;;;;;;;10.33;79.51;100847.63;2060934;28;20083;-69
2022/09/30 03:40:31;;;;;;;0.30;0.30;;;;;;;10.35;79.84;100848.06;2059921;28;20058;-68
2022/09/30 03:41:40;;;;;;;0.30;0.30;;;;;;;10.37;79.55;100845.81;2060214;28;20735;-69
2022/09/30 03:42:45;;;;;;;0.30;0.30;;;;;;;10.40;80.25;100850.53;2060675;28;20097;-68
2022/09/30 03:43:52;;;;;;;0.30;0.30;;;;;;;10.40;79.68;100847.06;2059916;28;20490;-68
2022/09/30 03:45:01;;;;;;;0.30;0.30;;;;;;;10.40;79.29;100847.06;2061686;28;20505;-68
2022/09/30 03:46:16;;;;;;;0.30;0.30;;;;;;;10.37;80.27;100848.50;2059266;28;20053;-68
2022/09/30 03:47:20;;;;;;;0.40;0.40;;;;;;;10.38;80.23;100850.09;2059927;28;20479;-68
2022/09/30 03:48:26;;;;;;;0.40;0.40;;;;;;;10.39;79.50;100854.38;2060037;28;20081;-68
2022/09/30 03:49:33;;;;;;;0.30;0.30;;;;;;;10.40;79.21;100847.06;2060534;28;20058;-68
2022/09/30 03:50:37;;;;;;;0.30;0.30;;;;;;;10.40;80.42;100845.13;2053242;28;20071;-68
2022/09/30 03:51:40;;;;;;;0.38;0.38;;;;;;;10.37;80.09;100850.41;2044938;28;20110;-68
2022/09/30 03:52:43;;;;;;;0.30;0.30;;;;;;;10.36;80.69;100859.66;2061478;28;20069;-68
2022/09/30 03:53:47;;;;;;;0.30;0.30;;;;;;;10.37;79.91;100858.50;2060398;28;20738;-68
2022/09/30 03:54:52;;;;;;;0.30;0.30;;;;;;;10.35;79.81;100855.38;2059283;28;20061;-68
2022/09/30 03:55:54;;;;;;;0.38;0.38;;;;;;;10.35;79.88;100866.94;2060674;28;20061;-68
2022/09/30 03:57:03;;;;;;;0.35;0.35;;;;;;;10.37;79.75;100853.13;2060196;28;20055;-68
2022/09/30 03:58:06;;;;;;;0.30;0.30;;;;;;;10.33;79.92;100858.41;2060112;28;20105;-69
2022/09/30 03:59:11;;;;;;;0.40;0.40;;;;;;;10.36;79.73;100865.84;2060916;28;20125;-69
2022/09/30 04:00:14;;;;;;;0.40;0.40;;;;;;;10.33;80.17;100866.53;2060172;28;20054;-69
2022/09/30 04:01:20;;;;;;;0.30;0.30;;;;;;;10.34;80.36;100853.78;2060988;28;20062;-68
2022/09/30 04:02:22;;;;;;;0.30;0.30;;;;;;;10.32;80.41;100862.22;2060248;28;20648;-68
2022/09/30 04:03:26;;;;;;;0.30;0.30;;;;;;;10.34;80.43;100862.69;2059283;28;20054;-67
2022/09/30 04:04:28;;;;;;;0.38;0.38;;;;;;;10.35;79.46;100866.94;2060318;28;20506;-67
2022/09/30 04:05:31;;;;;;;0.40;0.40;;;;;;;10.34;79.55;100867.28;2060589;28;20488;-67
2022/09/30 04:06:33;;;;;;;0.40;0.40;;;;;;;10.35;79.25;100866.94;2060325;28;20066;-68
2022/09/30 04:07:37;;;;;;;0.40;0.40;;;;;;;10.35;79.97;100866.19;2059686;28;20114;-68
2022/09/30 04:08:39;;;;;;;0.40;0.40;;;;;;;10.33;79.66;100869.22;2060372;28;20078;-68
2022/09/30 04:09:43;;;;;;;0.40;0.40;;;;;;;10.34;80.08;100868.09;2059998;28;20777;-68
2022/09/30 04:10:45;;;;;;;0.40;0.40;;;;;;;10.33;79.45;100868.41;2060465;28;20067;-68
2022/09/30 04:11:48;;;;;;;0.30;0.30;;;;;;;10.33;79.81;100869.22;2060393;28;20581;-68
2022/09/30 04:12:52;;;;;;;0.40;0.40;;;;;;;10.36;79.82;100876.63;2052524;28;20142;-68
2022/09/30 04:13:55;;;;;;;0.40;0.40;;;;;;;10.34;79.57;100870.78;2054759;28;20790;-68
2022/09/30 04:14:57;;;;;;;0.45;0.45;;;;;;;10.35;80.23;100875.03;2060172;28;20177;-68
2022/09/30 04:16:00;;;;;;;0.30;0.30;;;;;;;10.35;79.63;100888.53;2059938;28;20062;-68
2022/09/30 04:17:03;;;;;;;0.30;0.30;;;;;;;10.35;79.22;100888.53;2051164;28;20450;-68
2022/09/30 04:18:06;;;;;;;0.40;0.40;;;;;;;10.36;79.22;100886.63;2052306;28;20051;-68
2022/09/30 04:19:09;;;;;;;0.40;0.40;;;;;;;10.36;79.30;100882.03;2059380;28;20084;-68
2022/09/30 04:20:11;;;;;;;0.40;0.40;;;;;;;10.36;79.29;100890.13;2059862;28;20132;-67
2022/09/30 04:21:15;;;;;;;0.50;0.50;;;;;;;10.35;79.21;100893.16;2060248;28;20459;-67
2022/09/30 04:22:17;;;;;;;0.47;0.47;;;;;;;10.35;79.65;100893.16;2059616;28;20062;-68
2022/09/30 04:23:20;;;;;;;0.40;0.40;;;;;;;10.33;79.36;100885.41;2060398;28;20063;-67
2022/09/30 04:24:23;;;;;;;0.40;0.40;;;;;;;10.35;80.11;100888.53;2059549;28;20105;-68
2022/09/30 04:25:28;;;;;;;0.40;0.40;;;;;;;10.36;79.12;100889.34;2059218;28;20058;-68
2022/09/30 04:26:30;;;;;;;0.40;0.40;;;;;;;10.33;79.59;100885.41;2058934;28;20496;-68
2022/09/30 04:27:33;;;;;;;0.40;0.40;;;;;;;10.32;79.16;100886.50;2060546;28;20057;-68
2022/09/30 04:28:35;;;;;;;0.40;0.40;;;;;;;10.31;80.15;100886.84;2060796;28;20063;-68
2022/09/30 04:29:38;;;;;;;0.40;0.40;;;;;;;10.31;79.28;100884.16;2059192;28;20434;-68
2022/09/30 04:30:40;;;;;;;0.40;0.40;;;;;;;10.31;79.58;100893.03;2059240;28;20069;-68
2022/09/30 04:31:43;;;;;;;0.30;0.30;;;;;;;10.29;79.28;100889.88;2052929;28;20097;-68
2022/09/30 04:32:45;;;;;;;0.45;0.45;;;;;;;10.25;78.95;100893.59;2052226;28;20062;-68
2022/09/30 04:33:49;;;;;;;0.40;0.40;;;;;;;10.23;79.45;100887.75;2060878;28;20054;-68
2022/09/30 04:34:53;;;;;;;0.40;0.40;;;;;;;10.15;79.22;100884.03;2044943;28;20051;-68
2022/09/30 04:35:56;;;;;;;0.43;0.43;;;;;;;10.11;79.30;100883.16;2045687;28;20061;-68
2022/09/30 04:36:58;;;;;;;0.40;0.40;;;;;;;10.04;79.42;100882.88;2060114;28;20054;-68
2022/09/30 04:38:01;;;;;;;0.40;0.40;;;;;;;10.00;79.46;100886.56;2059136;28;20098;-68
2022/09/30 04:39:03;;;;;;;0.40;0.40;;;;;;;9.93;80.31;100881.72;2060324;28;20054;-67
2022/09/30 04:40:08;;;;;;;0.40;0.40;;;;;;;9.90;80.79;100882.41;2058705;28;20616;-68
2022/09/30 04:41:14;;;;;;;0.40;0.40;;;;;;;9.88;80.57;100881.16;2059872;28;20530;-68
2022/09/30 04:42:18;;;;;;;0.50;0.50;;;;;;;9.86;80.64;100886.88;2060555;28;20630;-68
2022/09/30 04:43:22;;;;;;;0.50;0.50;;;;;;;9.87;80.41;100887.66;2060191;28;20066;-68
2022/09/30 04:44:25;;;;;;;0.50;0.50;;;;;;;9.87;80.51;100890.38;2059986;28;20050;-68
2022/09/30 04:45:27;;;;;;;0.40;0.40;;;;;;;9.86;80.71;100892.28;2059443;28;20061;-67
2022/09/30 04:46:30;;;;;;;0.50;0.50;;;;;;;9.86;80.36;100894.97;2059041;28;20050;-68
2022/09/30 04:47:33;;;;;;;0.50;0.50;;;;;;;9.87;80.94;100893.88;2053116;28;20050;-67
2022/09/30 04:48:35;;;;;;;0.50;0.50;;;;;;;9.86;80.94;100888.81;2052158;28;20062;-68
2022/09/30 04:49:37;;;;;;;0.40;0.40;;;;;;;9.86;81.01;100897.66;2059451;28;20067;-68
2022/09/30 04:50:40;;;;;;;0.40;0.40;;;;;;;9.87;79.89;100896.56;2059804;28;20051;-69
2022/09/30 04:51:44;;;;;;;0.47;0.47;;;;;;;9.87;81.24;100896.56;2051042;28;20156;-69
2022/09/30 04:52:47;;;;;;;0.40;0.40;;;;;;;9.88;80.71;100902.72;2051691;28;20133;-69
2022/09/30 04:53:49;;;;;;;0.40;0.40;;;;;;;9.88;80.58;100898.13;2059659;28;20567;-69
2022/09/30 04:54:52;;;;;;;0.40;0.40;;;;;;;9.87;80.30;100899.25;2059779;28;20061;-69
2022/09/30 04:55:58;;;;;;;0.40;0.40;;;;;;;9.88;79.54;100908.13;2059984;28;20058;-69
2022/09/30 04:57:03;;;;;;;0.40;0.40;;;;;;;9.86;81.02;100896.91;2060392;28;20120;-69
2022/09/30 04:58:05;;;;;;;0.40;0.40;;;;;;;9.84;80.24;100909.91;2051779;28;20050;-69
2022/09/30 04:59:08;;;;;;;0.50;0.50;;;;;;;9.85;80.50;100911.47;2052727;28;20072;-69
2022/09/30 05:00:11;;;;;;;0.40;0.40;;;;;;;9.81;80.45;100911.38;2059647;28;20679;-68
2022/09/30 05:01:15;;;;;;;0.40;0.40;;;;;;;9.77;81.72;100910.44;2058820;28;20105;-69
2022/09/30 05:02:17;;;;;;;0.40;0.40;;;;;;;9.73;81.54;100917.66;2059356;28;20528;-69
2022/09/30 05:03:20;;;;;;;0.40;0.40;;;;;;;9.73;80.43;100917.66;2060126;28;20051;-69
2022/09/30 05:04:22;;;;;;;0.40;0.40;;;;;;;9.71;81.07;100916.38;2059883;28;20054;-67
2022/09/30 05:05:25;;;;;;;0.40;0.40;;;;;;;9.69;81.22;100922.09;2060139;28;20046;-69
2022/09/30 05:06:28;;;;;;;0.40;0.40;;;;;;;9.65;81.70;100929.31;2059895;28;20069;-68
2022/09/30 05:07:30;;;;;;;0.40;0.40;;;;;;;9.64;81.31;100925.00;2058922;28;20050;-68
2022/09/30 05:08:34;;;;;;;0.40;0.40;;;;;;;9.64;80.92;100924.25;2059548;28;20691;-69
2022/09/30 05:09:36;;;;;;;0.50;0.50;;;;;;;9.61;81.73;100920.28;2060324;28;20065;-68
2022/09/30 05:10:39;;;;;;;0.40;0.40;;;;;;;9.62;81.60;100926.47;2059961;28;20058;-68
2022/09/30 05:11:41;;;;;;;0.40;0.40;;;;;;;9.62;81.14;100921.09;2060178;28;20059;-67
2022/09/30 05:12:45;;;;;;;0.50;0.50;;;;;;;9.62;80.68;100929.97;2059825;28;20065;-68
2022/09/30 05:13:48;;;;;;;0.40;0.40;;;;;;;9.62;81.80;100919.19;2059603;28;20105;-68